Terminal Aerodrome Forecast
Issued by NWS

Home | Current Version | Previous Version | Graphics & Text | Print | Product List | Glossary Off
Versions: 1 2 3 4 5 6 7 8 9 10 11 12 13 14 15

000
FTUS43 KGRB 261133
TAFCWA
TAF
KCWA 261133Z 2612/2712 29011G18KT P6SM SCT012 BKN025
      TEMPO 2612/2614 BKN012
     FM261400 30013G24KT P6SM SCT015 BKN025
      TEMPO 2615/2619 -SHRA BKN015
     FM261900 31010G18KT P6SM BKN035
     FM262300 30009KT P6SM FEW040 BKN100
     FM270200 28004KT P6SM SCT100=

USA.gov is the U.S. government's official web portal to all federal, state and local government web resources and services.